Time;durP1;ratioP1;P1;durP2;ratioP2;P2;SDS_P1;SDS_P2;PMS_P1;PMS_P2;Temp;Humidity;BMP_temperature;BMP_pressure;BME280_temperature;BME280_humidity;BME280_pressure;Samples;Min_cycle;Max_cycle;Signal;HPM_P1;HPM_P2
2022/06/20 00:00:04;;;;;;;;;;;25.90;56.00;25.80;98994.00;;;;347462;27;92963;-89
2022/06/20 00:00:17;;;;;;;;;;;25.90;56.10;25.80;98987.00;;;;344937;28;85030;-89
2022/06/20 00:00:29;;;;;;;;;;;25.90;56.10;25.80;98989.00;;;;345768;28;89114;-89
2022/06/20 00:00:40;;;;;;;;;;;25.90;56.10;25.80;98982.00;;;;345515;28;83641;-89
2022/06/20 00:00:52;;;;;;;;;;;25.90;56.20;25.80;98983.00;;;;346797;28;91129;-89
2022/06/20 00:01:04;;;;;;;;;;;25.90;56.20;25.90;98987.00;;;;348964;27;83492;-89
2022/06/20 00:01:15;;;;;;;;;;;25.90;56.10;25.90;98989.00;;;;347528;27;91128;-89
2022/06/20 00:01:27;;;;;;;;;;;25.80;56.10;25.90;98985.00;;;;346079;28;83498;-89
2022/06/20 00:01:39;;;;;;;;;;;25.80;56.10;25.80;98982.00;;;;344194;28;91451;-89
2022/06/20 00:01:51;;;;;;;;;;;25.90;56.20;25.80;98985.00;;;;348872;27;82289;-89
2022/06/20 00:02:03;;;;;;;;;;;25.80;56.10;25.70;98980.00;;;;345565;28;90939;-88
2022/06/20 00:02:19;;;;;;;;;;;25.80;55.90;25.70;98978.00;;;;343317;28;83316;-88
2022/06/20 00:02:31;;;;;;;;;;;25.90;56.00;25.70;98993.00;;;;345539;28;93364;-89
2022/06/20 00:02:45;;;;;;;;;;;25.80;56.00;25.70;98992.00;;;;346111;28;82661;-89
2022/06/20 00:02:58;;;;;;;;;;;25.80;56.10;25.80;98986.00;;;;345576;28;91460;-89
2022/06/20 00:03:27;;;;;;;;;;;25.80;56.10;25.70;98987.00;;;;344666;28;82463;-88
2022/06/20 00:03:41;;;;;;;;;;;25.80;56.10;25.70;98989.00;;;;345508;28;92396;-89
2022/06/20 00:03:54;;;;;;;;;;;25.80;56.00;25.70;98989.00;;;;347451;28;82568;-90
2022/06/20 00:04:14;;;;;;;;;;;25.80;56.00;25.70;98991.00;;;;348410;27;91468;-89
2022/06/20 00:04:32;;;;;;;;;;;25.80;56.10;25.70;98980.00;;;;346039;28;83517;-89
2022/06/20 00:04:43;;;;;;;;;;;25.80;56.20;25.80;98987.00;;;;345790;28;91196;-89
2022/06/20 00:04:55;;;;;;;;;;;25.80;56.40;25.80;98978.00;;;;346048;28;82702;-89
2022/06/20 00:05:10;;;;;;;;;;;25.80;56.30;25.80;98979.00;;;;347014;28;91767;-89
2022/06/20 00:05:26;;;;;;;;;;;25.80;56.20;25.80;98978.00;;;;347311;28;82708;-89
2022/06/20 00:05:38;;;;;;;;;;;25.80;56.20;25.80;98980.00;;;;347004;28;91808;-89
2022/06/20 00:05:50;;;;;;;;;;;25.80;56.20;25.70;98985.00;;;;347511;28;83310;-89
2022/06/20 00:06:02;;;;;;;;;;;25.80;56.20;25.80;98994.00;;;;348428;27;92204;-89
2022/06/20 00:06:19;;;;;;;;;;;25.80;56.30;25.70;98980.00;;;;347427;28;83443;-89
2022/06/20 00:06:31;;;;;;;;;;;25.80;56.30;25.70;98983.00;;;;345587;28;91532;-89
2022/06/20 00:06:42;;;;;;;;;;;25.70;56.00;25.70;98980.00;;;;346074;28;82512;-89
2022/06/20 00:06:54;;;;;;;;;;;25.70;56.00;25.70;98977.00;;;;346579;28;90533;-89
2022/06/20 00:07:08;;;;;;;;;;;25.70;55.90;25.70;98984.00;;;;347159;28;83450;-89
2022/06/20 00:07:20;;;;;;;;;;;25.70;55.90;25.70;98969.00;;;;345542;28;91326;-90
2022/06/20 00:07:33;;;;;;;;;;;25.70;55.90;25.70;98979.00;;;;347359;28;82494;-89
2022/06/20 00:07:44;;;;;;;;;;;25.80;56.00;25.70;98971.00;;;;345523;28;91002;-89
2022/06/20 00:07:56;;;;;;;;;;;25.80;56.00;25.70;98971.00;;;;346083;28;83330;-89
2022/06/20 00:08:08;;;;;;;;;;;25.70;56.00;25.70;98975.00;;;;348536;27;90213;-89
2022/06/20 00:08:20;;;;;;;;;;;25.80;56.10;25.80;98979.00;;;;348835;27;83689;-89
2022/06/20 00:08:32;;;;;;;;;;;25.70;56.10;25.80;98976.00;;;;348420;27;90917;-89
2022/06/20 00:08:44;;;;;;;;;;;25.70;56.00;25.80;98971.00;;;;347514;28;82540;-89
2022/06/20 00:08:56;;;;;;;;;;;25.70;56.00;25.80;98979.00;;;;346936;28;90515;-89
2022/06/20 00:09:07;;;;;;;;;;;25.80;56.10;25.70;98978.00;;;;350316;27;83460;-89
2022/06/20 00:09:19;;;;;;;;;;;25.70;56.00;25.70;98973.00;;;;345616;28;91595;-89
2022/06/20 00:09:31;;;;;;;;;;;25.80;56.10;25.70;98975.00;;;;346055;28;83434;-89
2022/06/20 00:09:43;;;;;;;;;;;25.70;56.10;25.70;98980.00;;;;346521;28;90392;-89
2022/06/20 00:09:54;;;;;;;;;;;25.70;56.00;25.70;98974.00;;;;347177;28;83470;-89
2022/06/20 00:10:07;;;;;;;;;;;25.70;56.00;25.70;98971.00;;;;345702;28;91278;-89
2022/06/20 00:10:19;;;;;;;;;;;25.70;56.00;25.70;98974.00;;;;348206;27;82612;-89
2022/06/20 00:10:31;;;;;;;;;;;25.70;56.00;25.70;98974.00;;;;345641;28;90652;-89
2022/06/20 00:10:46;;;;;;;;;;;25.70;56.00;25.70;98977.00;;;;347446;28;82536;-89
2022/06/20 00:10:57;;;;;;;;;;;25.70;55.90;25.70;98969.00;;;;346949;28;91613;-89
2022/06/20 00:11:17;;;;;;;;;;;25.70;56.00;25.70;98975.00;;;;347559;28;82554;-89
2022/06/20 00:11:35;;;;;;;;;;;25.70;56.00;25.70;98976.00;;;;348420;27;91323;-89
2022/06/20 00:11:48;;;;;;;;;;;25.70;56.00;25.70;98982.00;;;;347446;28;83367;-89
2022/06/20 00:12:00;;;;;;;;;;;25.70;56.00;25.70;98976.00;;;;346920;28;91538;-89
2022/06/20 00:12:15;;;;;;;;;;;25.70;55.90;25.60;98981.00;;;;346122;28;82344;-89
2022/06/20 00:12:27;;;;;;;;;;;25.70;55.80;25.60;98979.00;;;;344247;28;92382;-88
2022/06/20 00:12:39;;;;;;;;;;;25.70;56.00;25.70;98974.00;;;;344741;28;82416;-89
2022/06/20 00:12:51;;;;;;;;;;;25.70;56.20;25.70;98975.00;;;;349010;27;91214;-88
2022/06/20 00:13:03;;;;;;;;;;;25.70;56.10;25.60;98972.00;;;;345857;28;82607;-89
2022/06/20 00:13:19;;;;;;;;;;;25.70;56.00;25.70;98976.00;;;;345596;28;90377;-88
2022/06/20 00:13:32;;;;;;;;;;;25.70;56.00;25.70;98976.00;;;;347466;28;83327;-89
2022/06/20 00:13:45;;;;;;;;;;;25.70;56.10;25.60;98981.00;;;;346994;28;90636;-89
2022/06/20 00:13:57;;;;;;;;;;;25.70;56.00;25.60;98979.00;;;;346115;28;82429;-88
2022/06/20 00:14:13;;;;;;;;;;;25.70;56.10;25.70;98985.00;;;;344359;28;90768;-89
2022/06/20 00:14:24;;;;;;;;;;;25.70;56.10;25.60;98988.00;;;;347440;27;82442;-89
2022/06/20 00:14:36;;;;;;;;;;;25.70;56.10;25.60;98985.00;;;;344222;28;92537;-89
2022/06/20 00:14:52;;;;;;;;;;;25.70;56.10;25.60;98979.00;;;;346161;28;83402;-88
2022/06/20 00:15:04;;;;;;;;;;;25.60;56.10;25.70;98984.00;;;;345598;28;92217;-89
2022/06/20 00:15:27;;;;;;;;;;;25.70;56.10;25.70;98982.00;;;;344749;28;83380;-89
2022/06/20 00:15:46;;;;;;;;;;;25.60;56.00;25.70;98981.00;;;;345656;28;90944;-89
2022/06/20 00:16:01;;;;;;;;;;;25.70;56.10;25.60;98987.00;;;;347438;28;83387;-89
2022/06/20 00:16:17;;;;;;;;;;;25.60;56.10;25.60;98982.00;;;;344663;28;89460;-89
2022/06/20 00:16:30;;;;;;;;;;;25.60;56.20;25.60;98984.00;;;;346011;28;82520;-89
2022/06/20 00:16:43;;;;;;;;;;;25.70;56.30;25.60;98994.00;;;;345654;28;91561;-89
2022/06/20 00:16:54;;;;;;;;;;;25.70;56.40;25.70;98992.00;;;;347216;27;82290;-89
2022/06/20 00:17:10;;;;;;;;;;;25.60;56.30;25.60;98986.00;;;;346718;28;91450;-89
2022/06/20 00:17:22;;;;;;;;;;;25.70;56.20;25.60;98993.00;;;;346073;28;83286;-89
2022/06/20 00:17:36;;;;;;;;;;;25.60;56.10;25.70;98984.00;;;;344314;28;88621;-89
2022/06/20 00:17:47;;;;;;;;;;;25.60;56.00;25.70;98979.00;;;;346087;28;82329;-89
2022/06/20 00:18:00;;;;;;;;;;;25.70;56.10;25.70;98986.00;;;;345588;28;91533;-89
2022/06/20 00:18:12;;;;;;;;;;;25.60;56.00;25.60;98979.00;;;;347501;28;83142;-89
2022/06/20 00:18:23;;;;;;;;;;;25.70;56.20;25.60;98975.00;;;;346968;28;91955;-89
2022/06/20 00:18:35;;;;;;;;;;;25.60;56.00;25.60;98984.00;;;;343289;28;83447;-89
2022/06/20 00:18:47;;;;;;;;;;;25.60;56.20;25.60;98978.00;;;;345468;28;90954;-89
2022/06/20 00:18:59;;;;;;;;;;;25.60;56.20;25.60;98984.00;;;;348622;27;83452;-89
2022/06/20 00:19:11;;;;;;;;;;;25.60;56.10;25.60;98981.00;;;;346792;28;92529;-89
2022/06/20 00:19:23;;;;;;;;;;;25.60;56.10;25.60;98978.00;;;;347390;28;83423;-89
2022/06/20 00:19:35;;;;;;;;;;;25.60;56.10;25.70;98984.00;;;;345412;28;91709;-89
2022/06/20 00:19:47;;;;;;;;;;;25.60;56.10;25.60;98978.00;;;;348786;27;82551;-89
2022/06/20 00:19:58;;;;;;;;;;;25.60;56.00;25.60;98984.00;;;;346964;28;91446;-89
2022/06/20 00:20:11;;;;;;;;;;;25.60;56.50;25.60;98982.00;;;;346155;28;83504;-89
2022/06/20 00:20:22;;;;;;;;;;;25.60;56.00;25.60;98977.00;;;;344211;28;89877;-89
2022/06/20 00:20:35;;;;;;;;;;;25.60;55.90;25.50;98980.00;;;;347500;28;82458;-89
2022/06/20 00:20:47;;;;;;;;;;;25.60;55.90;25.50;98972.00;;;;347059;28;90410;-88
2022/06/20 00:20:59;;;;;;;;;;;25.60;55.90;25.50;98981.00;;;;345921;28;83379;-89
2022/06/20 00:21:12;;;;;;;;;;;25.60;56.00;25.50;98975.00;;;;349779;27;93032;-89
2022/06/20 00:21:23;;;;;;;;;;;25.60;56.00;25.60;98976.00;;;;347493;28;83555;-89
2022/06/20 00:21:35;;;;;;;;;;;25.60;56.00;25.50;98984.00;;;;347007;27;89154;-89
2022/06/20 00:21:47;;;;;;;;;;;25.60;56.10;25.50;98982.00;;;;346563;28;82478;-89
2022/06/20 00:21:59;;;;;;;;;;;25.60;56.00;25.50;98973.00;;;;345521;28;90470;-89
2022/06/20 00:22:10;;;;;;;;;;;25.50;56.00;25.50;98986.00;;;;346133;28;83380;-89
2022/06/20 00:22:22;;;;;;;;;;;25.60;56.10;25.60;98987.00;;;;344174;28;91189;-89
2022/06/20 00:22:34;;;;;;;;;;;25.50;56.10;25.60;98989.00;;;;346050;28;83454;-89
2022/06/20 00:22:46;;;;;;;;;;;25.50;56.20;25.50;98980.00;;;;346061;28;91741;-89
2022/06/20 00:22:57;;;;;;;;;;;25.60;56.30;25.50;98982.00;;;;347334;28;83397;-89
2022/06/20 00:23:09;;;;;;;;;;;25.60;56.20;25.60;98985.00;;;;345685;28;91622;-89
2022/06/20 00:23:21;;;;;;;;;;;25.60;56.20;25.60;98985.00;;;;346029;28;83509;-89
2022/06/20 00:23:33;;;;;;;;;;;25.50;56.10;25.50;98989.00;;;;345798;28;91547;-89
2022/06/20 00:23:45;;;;;;;;;;;25.50;56.20;25.50;98986.00;;;;346106;28;82431;-89
2022/06/20 00:23:56;;;;;;;;;;;25.50;56.20;25.50;98976.00;;;;347067;28;91970;-89
2022/06/20 00:24:08;;;;;;;;;;;25.50;56.00;25.60;98982.00;;;;346128;28;83390;-89
2022/06/20 00:24:20;;;;;;;;;;;25.60;56.20;25.60;98987.00;;;;346942;28;90328;-89
2022/06/20 00:24:31;;;;;;;;;;;25.50;56.10;25.50;98988.00;;;;345964;28;83685;-89
2022/06/20 00:24:43;;;;;;;;;;;25.60;56.20;25.60;98983.00;;;;345523;28;91220;-89
2022/06/20 00:24:55;;;;;;;;;;;25.50;56.10;25.60;98989.00;;;;346978;28;82402;-89
2022/06/20 00:25:07;;;;;;;;;;;25.60;56.10;25.60;98997.00;;;;346747;28;91030;-89
2022/06/20 00:25:19;;;;;;;;;;;25.50;56.10;25.60;98992.00;;;;348783;27;84053;-89
2022/06/20 00:25:31;;;;;;;;;;;25.60;56.30;25.50;98993.00;;;;348464;27;91226;-89
2022/06/20 00:25:43;;;;;;;;;;;25.60;56.20;25.50;98986.00;;;;345936;28;83556;-88
2022/06/20 00:25:54;;;;;;;;;;;25.60;56.20;25.50;98983.00;;;;344339;28;91596;-89
2022/06/20 00:26:07;;;;;;;;;;;25.50;56.10;25.50;98983.00;;;;348919;27;82473;-89
2022/06/20 00:26:19;;;;;;;;;;;25.50;56.10;25.50;98985.00;;;;347010;28;91006;-89
2022/06/20 00:26:30;;;;;;;;;;;25.50;56.10;25.50;98993.00;;;;348721;27;83533;-89
2022/06/20 00:26:42;;;;;;;;;;;25.50;56.10;25.50;98990.00;;;;348469;27;91390;-87
2022/06/20 00:26:54;;;;;;;;;;;25.50;56.00;25.50;98990.00;;;;351762;27;83140;-89
2022/06/20 00:27:09;;;;;;;;;;;25.50;56.00;25.50;98989.00;;;;345580;28;92642;-88
2022/06/20 00:27:20;;;;;;;;;;;25.50;56.20;25.50;98986.00;;;;350357;27;83303;-88
2022/06/20 00:27:33;;;;;;;;;;;25.50;56.20;25.50;98981.00;;;;346910;28;91767;-89
2022/06/20 00:27:44;;;;;;;;;;;25.50;56.10;25.50;98986.00;;;;347746;27;83742;-89
2022/06/20 00:27:57;;;;;;;;;;;25.50;56.20;25.50;98986.00;;;;346783;28;89919;-89
2022/06/20 00:28:10;;;;;;;;;;;25.50;56.20;25.50;98987.00;;;;348633;27;83416;-89
2022/06/20 00:28:21;;;;;;;;;;;25.50;56.20;25.50;98995.00;;;;344262;28;91526;-89
2022/06/20 00:28:33;;;;;;;;;;;25.50;56.20;25.50;98994.00;;;;344628;28;82535;-89
2022/06/20 00:28:45;;;;;;;;;;;25.50;56.10;25.50;98994.00;;;;345919;28;91446;-89
2022/06/20 00:28:57;;;;;;;;;;;25.50;56.20;25.50;98986.00;;;;346025;28;83198;-88
2022/06/20 00:29:10;;;;;;;;;;;25.50;56.30;25.50;98988.00;;;;346951;28;92569;-89
2022/06/20 00:29:21;;;;;;;;;;;25.50;56.20;25.60;98991.00;;;;346224;28;83298;-89
2022/06/20 00:29:35;;;;;;;;;;;25.50;56.20;25.60;98990.00;;;;345538;28;91925;-89
2022/06/20 00:29:47;;;;;;;;;;;25.50;56.20;25.60;98990.00;;;;348942;27;83394;-89
2022/06/20 00:29:58;;;;;;;;;;;25.50;56.10;25.60;98996.00;;;;346972;28;91532;-89
2022/06/20 00:30:12;;;;;;;;;;;25.50;56.10;25.60;98994.00;;;;344750;28;83402;-89
2022/06/20 00:30:24;;;;;;;;;;;25.50;56.20;25.50;98992.00;;;;344261;28;90440;-89
2022/06/20 00:30:36;;;;;;;;;;;25.50;56.10;25.60;98990.00;;;;344748;28;82561;-89
2022/06/20 00:30:47;;;;;;;;;;;25.50;56.10;25.60;98986.00;;;;347242;27;90657;-89
2022/06/20 00:31:00;;;;;;;;;;;25.50;56.20;25.60;98994.00;;;;347146;27;86399;-89
2022/06/20 00:31:12;;;;;;;;;;;25.50;56.10;25.50;98995.00;;;;347922;27;92140;-89
2022/06/20 00:31:24;;;;;;;;;;;25.50;56.70;25.60;98994.00;;;;345879;28;83336;-89
2022/06/20 00:31:36;;;;;;;;;;;25.50;56.10;25.50;98996.00;;;;347735;27;91590;-89
2022/06/20 00:31:48;;;;;;;;;;;25.50;56.20;25.50;98995.00;;;;347359;27;83549;-89
2022/06/20 00:32:00;;;;;;;;;;;25.50;56.10;25.50;98995.00;;;;347039;28;90011;-89
2022/06/20 00:32:12;;;;;;;;;;;25.50;56.20;25.50;98999.00;;;;350146;27;83488;-89
2022/06/20 00:32:23;;;;;;;;;;;25.50;56.30;25.50;98997.00;;;;347015;28;91161;-89
2022/06/20 00:32:35;;;;;;;;;;;25.50;56.20;25.50;98983.00;;;;345980;28;83473;-89
2022/06/20 00:32:47;;;;;;;;;;;25.50;56.20;25.60;98989.00;;;;347022;28;91886;-89
2022/06/20 00:32:59;;;;;;;;;;;25.50;56.20;25.50;98990.00;;;;346019;28;83390;-89
2022/06/20 00:33:11;;;;;;;;;;;25.50;56.20;25.50;98997.00;;;;345596;28;89036;-89
2022/06/20 00:33:22;;;;;;;;;;;25.50;56.20;25.50;98997.00;;;;346119;28;83402;-89
2022/06/20 00:33:34;;;;;;;;;;;25.50;56.20;25.50;98991.00;;;;345527;28;91721;-89
2022/06/20 00:33:46;;;;;;;;;;;25.50;56.40;25.50;99001.00;;;;348219;27;82708;-89
2022/06/20 00:33:58;;;;;;;;;;;25.50;56.40;25.50;98995.00;;;;347474;27;91490;-89
2022/06/20 00:34:10;;;;;;;;;;;25.50;56.40;25.50;99001.00;;;;347477;28;82342;-89
2022/06/20 00:34:22;;;;;;;;;;;25.50;56.50;25.50;99003.00;;;;347028;28;91556;-89
2022/06/20 00:34:33;;;;;;;;;;;25.50;56.30;25.50;99005.00;;;;347166;28;83513;-89
2022/06/20 00:34:45;;;;;;;;;;;25.50;56.30;25.50;99006.00;;;;348067;27;88869;-89
2022/06/20 00:34:57;;;;;;;;;;;25.50;56.20;25.50;99002.00;;;;345877;28;83437;-89
2022/06/20 00:35:09;;;;;;;;;;;25.50;56.20;25.40;99004.00;;;;345581;28;92313;-89
2022/06/20 00:35:21;;;;;;;;;;;25.50;56.20;25.50;98998.00;;;;346094;28;83431;-89
2022/06/20 00:35:33;;;;;;;;;;;25.50;56.20;25.50;99003.00;;;;347037;28;90787;-89
2022/06/20 00:35:45;;;;;;;;;;;25.50;56.20;25.50;99006.00;;;;347423;28;82337;-89
2022/06/20 00:35:58;;;;;;;;;;;25.50;56.20;25.50;99005.00;;;;345576;28;91747;-89
2022/06/20 00:36:09;;;;;;;;;;;25.50;56.20;25.50;99007.00;;;;347453;28;83331;-89
2022/06/20 00:36:21;;;;;;;;;;;25.50;56.20;25.50;99006.00;;;;348439;27;91061;-89
2022/06/20 00:36:33;;;;;;;;;;;25.50;56.20;25.50;99000.00;;;;348906;27;83292;-89
2022/06/20 00:36:45;;;;;;;;;;;25.50;56.30;25.60;98999.00;;;;349496;27;90566;-88
2022/06/20 00:36:56;;;;;;;;;;;25.50;56.30;25.60;99003.00;;;;347263;28;84517;-89
2022/06/20 00:37:09;;;;;;;;;;;25.50;56.30;25.60;99007.00;;;;344318;28;90294;-89
2022/06/20 00:37:21;;;;;;;;;;;25.50;56.20;25.50;99003.00;;;;346083;28;83317;-89
2022/06/20 00:37:33;;;;;;;;;;;25.50;56.30;25.40;99004.00;;;;345578;28;90961;-89
2022/06/20 00:37:45;;;;;;;;;;;25.50;56.30;25.50;99001.00;;;;347303;28;83391;-89
2022/06/20 00:37:57;;;;;;;;;;;25.50;56.30;25.40;98999.00;;;;345423;28;90824;-89
2022/06/20 00:38:17;;;;;;;;;;;25.50;56.30;25.40;99011.00;;;;343282;28;83261;-89
2022/06/20 00:38:29;;;;;;;;;;;25.50;56.20;25.50;99013.00;;;;344199;28;91503;-89
2022/06/20 00:38:42;;;;;;;;;;;25.50;56.30;25.50;99016.00;;;;347483;28;83410;-89
2022/06/20 00:38:55;;;;;;;;;;;25.50;56.40;25.50;99016.00;;;;345606;28;91430;-89
2022/06/20 00:39:06;;;;;;;;;;;25.50;56.50;25.50;99015.00;;;;348827;27;83447;-89
2022/06/20 00:39:19;;;;;;;;;;;25.50;56.50;25.40;99009.00;;;;348421;27;89675;-89
2022/06/20 00:39:31;;;;;;;;;;;25.50;56.60;25.50;99020.00;;;;347397;28;83474;-89
2022/06/20 00:39:42;;;;;;;;;;;25.50;56.40;25.40;99018.00;;;;343798;28;91583;-89
2022/06/20 00:39:54;;;;;;;;;;;25.50;56.40;25.40;99012.00;;;;347359;28;84013;-88
2022/06/20 00:40:32;;;;;;;;;;;25.50;56.50;25.40;99024.00;;;;348362;27;88775;-89
2022/06/20 00:40:46;;;;;;;;;;;25.50;56.50;25.40;99021.00;;;;348862;27;83314;-88
2022/06/20 00:41:00;;;;;;;;;;;25.40;56.40;25.30;99020.00;;;;345451;28;90863;-89
2022/06/20 00:41:15;;;;;;;;;;;25.40;56.40;25.30;99025.00;;;;346066;28;83307;-89
2022/06/20 00:41:29;;;;;;;;;;;25.40;56.40;25.40;99024.00;;;;347077;28;90306;-89
2022/06/20 00:41:41;;;;;;;;;;;25.40;56.50;25.40;99026.00;;;;344715;28;83371;-89
2022/06/20 00:41:53;;;;;;;;;;;25.40;56.50;25.30;99026.00;;;;345632;28;92344;-89
2022/06/20 00:42:05;;;;;;;;;;;25.40;56.40;25.30;99031.00;;;;346037;28;83502;-89
2022/06/20 00:42:16;;;;;;;;;;;25.40;56.40;25.30;99027.00;;;;345632;28;90701;-89
2022/06/20 00:42:28;;;;;;;;;;;25.40;56.50;25.30;99028.00;;;;346039;28;83410;-89
2022/06/20 00:42:40;;;;;;;;;;;25.40;56.50;25.30;99030.00;;;;345530;28;91687;-89
2022/06/20 00:42:52;;;;;;;;;;;25.30;56.40;25.30;99025.00;;;;345857;28;82639;-89
2022/06/20 00:43:04;;;;;;;;;;;25.40;56.50;25.30;99027.00;;;;347129;27;89010;-89
2022/06/20 00:43:39;;;;;;;;;;;25.30;56.50;25.30;99039.00;;;;347360;28;83428;-89
2022/06/20 00:43:52;;;;;;;;;;;25.40;56.60;25.40;99027.00;;;;345669;28;90404;-88
2022/06/20 00:44:04;;;;;;;;;;;25.40;56.70;25.40;99025.00;;;;345965;28;83186;-89
2022/06/20 00:44:26;;;;;;;;;;;25.40;56.70;25.40;99027.00;;;;346617;28;91390;-89
2022/06/20 00:44:42;;;;;;;;;;;25.40;56.70;25.40;99031.00;;;;345994;28;83482;-89
2022/06/20 00:44:56;;;;;;;;;;;25.30;56.60;25.30;99035.00;;;;347011;28;90215;-88
2022/06/20 00:45:10;;;;;;;;;;;25.40;56.70;25.30;99026.00;;;;346153;28;82343;-89
2022/06/20 00:45:22;;;;;;;;;;;25.40;56.70;25.30;99031.00;;;;344194;28;92468;-89
2022/06/20 00:45:37;;;;;;;;;;;25.40;56.70;25.40;99034.00;;;;345907;28;83289;-89
2022/06/20 00:45:49;;;;;;;;;;;25.40;56.70;25.30;99031.00;;;;346431;28;92165;-89
2022/06/20 00:46:04;;;;;;;;;;;25.40;56.80;25.30;99029.00;;;;345935;28;83494;-89
2022/06/20 00:46:35;;;;;;;;;;;25.40;56.70;25.30;99028.00;;;;347620;27;90274;-89
2022/06/20 00:46:51;;;;;;;;;;;25.30;56.60;25.30;99027.00;;;;347425;28;82510;-89
2022/06/20 00:47:06;;;;;;;;;;;25.40;56.70;25.30;99035.00;;;;346901;28;91361;-89
2022/06/20 00:47:24;;;;;;;;;;;25.30;56.60;25.30;99032.00;;;;348584;27;83319;-88
2022/06/20 00:47:36;;;;;;;;;;;25.30;56.70;25.30;99041.00;;;;348344;27;91567;-89
2022/06/20 00:47:48;;;;;;;;;;;25.30;56.60;25.30;99042.00;;;;346122;28;82595;-89
2022/06/20 00:48:04;;;;;;;;;;;25.30;56.80;25.40;99030.00;;;;345786;28;87735;-89
2022/06/20 00:48:25;;;;;;;;;;;25.30;56.90;25.30;99036.00;;;;345977;28;82575;-89
2022/06/20 00:48:46;;;;;;;;;;;25.40;56.80;25.30;99034.00;;;;344228;28;91913;-89
2022/06/20 00:49:01;;;;;;;;;;;25.30;56.80;25.30;99034.00;;;;346402;27;82560;-88
2022/06/20 00:49:20;;;;;;;;;;;25.30;56.90;25.30;99024.00;;;;346917;28;90983;-89
2022/06/20 00:49:38;;;;;;;;;;;25.30;57.00;25.30;99031.00;;;;344597;28;83445;-89
2022/06/20 00:50:11;;;;;;;;;;;25.30;56.80;25.30;99025.00;;;;345481;28;93458;-89
2022/06/20 00:50:25;;;;;;;;;;;25.30;56.90;25.20;99031.00;;;;345921;28;83430;-89
2022/06/20 00:50:37;;;;;;;;;;;25.30;56.80;25.20;99028.00;;;;344258;28;89968;-89
2022/06/20 00:50:51;;;;;;;;;;;25.30;56.80;25.30;99026.00;;;;347580;28;83294;-89
2022/06/20 00:51:18;;;;;;;;;;;25.30;56.80;25.30;99026.00;;;;345538;28;91225;-89
2022/06/20 00:51:37;;;;;;;;;;;25.30;56.80;25.30;99032.00;;;;344674;28;83368;-89
2022/06/20 00:52:10;;;;;;;;;;;25.30;56.80;25.30;99030.00;;;;347836;27;91322;-89
2022/06/20 00:52:22;;;;;;;;;;;25.30;57.00;25.40;99032.00;;;;345920;28;83520;-89
2022/06/20 00:52:37;;;;;;;;;;;25.30;57.00;25.30;99031.00;;;;344267;28;91242;-89
2022/06/20 00:52:50;;;;;;;;;;;25.30;57.00;25.40;99032.00;;;;346011;28;83280;-90
2022/06/20 00:53:26;;;;;;;;;;;25.30;56.90;25.40;99024.00;;;;345447;28;92091;-89
2022/06/20 00:53:42;;;;;;;;;;;25.30;57.00;25.40;99017.00;;;;347331;28;83441;-89
2022/06/20 00:53:58;;;;;;;;;;;25.30;56.90;25.40;99018.00;;;;345401;28;89957;-89
2022/06/20 00:54:11;;;;;;;;;;;25.30;57.30;25.50;99032.00;;;;347509;28;83534;-89
2022/06/20 00:54:24;;;;;;;;;;;25.40;57.20;25.50;99030.00;;;;346971;27;91192;-88
2022/06/20 00:54:38;;;;;;;;;;;25.30;57.00;25.50;99034.00;;;;347449;28;83466;-89
2022/06/20 00:54:56;;;;;;;;;;;25.40;57.20;25.50;99035.00;;;;347037;27;92267;-89
2022/06/20 00:55:33;;;;;;;;;;;25.30;57.00;25.40;99039.00;;;;346090;28;83417;-89
2022/06/20 00:55:48;;;;;;;;;;;25.40;56.90;25.30;99031.00;;;;345855;28;90504;-89
2022/06/20 00:56:02;;;;;;;;;;;25.40;57.00;25.30;99036.00;;;;347370;28;83372;-89
2022/06/20 00:56:46;;;;;;;;;;;25.40;57.00;25.20;99031.00;;;;344141;28;92264;-89
2022/06/20 00:57:14;;;;;;;;;;;25.40;57.00;25.30;99038.00;;;;345888;28;83530;-89
2022/06/20 00:57:27;;;;;;;;;;;25.30;57.00;25.30;99044.00;;;;345650;28;92289;-89
2022/06/20 00:57:44;;;;;;;;;;;25.30;57.10;25.40;99038.00;;;;346039;28;83445;-89
2022/06/20 00:58:07;;;;;;;;;;;25.30;57.30;25.40;99032.00;;;;347120;27;91667;-89
2022/06/20 00:58:30;;;;;;;;;;;25.30;57.30;25.40;99037.00;;;;345872;28;83500;-89
2022/06/20 00:58:55;;;;;;;;;;;25.30;57.20;25.40;99049.00;;;;345682;28;91327;-89
2022/06/20 00:59:09;;;;;;;;;;;25.30;57.10;25.30;99031.00;;;;344657;28;83229;-89
2022/06/20 00:59:26;;;;;;;;;;;25.30;57.20;25.30;99042.00;;;;347123;28;87952;-89
2022/06/20 00:59:42;;;;;;;;;;;25.30;57.20;25.20;99039.00;;;;346046;28;83972;-89
2022/06/20 01:00:15;;;;;;;;;;;25.30;57.30;25.20;99042.00;;;;345581;28;92198;-89
2022/06/20 01:00:28;;;;;;;;;;;25.30;57.20;25.20;99047.00;;;;346050;28;83454;-89
2022/06/20 01:00:40;;;;;;;;;;;25.20;57.70;25.20;99051.00;;;;345240;28;91648;-89
2022/06/20 01:00:52;;;;;;;;;;;25.20;57.70;25.30;99048.00;;;;347213;28;83523;-89
2022/06/20 01:01:04;;;;;;;;;;;25.20;57.60;25.30;99042.00;;;;346824;28;91765;-89
2022/06/20 01:01:17;;;;;;;;;;;25.20;57.50;25.30;99051.00;;;;345944;28;82570;-89
2022/06/20 01:01:39;;;;;;;;;;;25.30;57.60;25.20;99051.00;;;;345639;28;89676;-89
2022/06/20 01:01:51;;;;;;;;;;;25.20;57.40;25.30;99056.00;;;;348795;27;82443;-89
2022/06/20 01:02:06;;;;;;;;;;;25.30;57.40;25.30;99051.00;;;;345681;28;90764;-89
2022/06/20 01:02:25;;;;;;;;;;;25.20;57.30;25.40;99055.00;;;;347341;28;83399;-88
2022/06/20 01:02:39;;;;;;;;;;;25.20;57.70;25.30;99051.00;;;;348281;27;92546;-89
2022/06/20 01:02:57;;;;;;;;;;;25.30;57.60;25.20;99051.00;;;;347409;28;82473;-89
2022/06/20 01:03:13;;;;;;;;;;;25.30;57.50;25.10;99052.00;;;;345690;28;90706;-89
2022/06/20 01:03:28;;;;;;;;;;;25.20;57.30;25.10;99047.00;;;;348778;27;82386;-89
2022/06/20 01:03:51;;;;;;;;;;;25.20;57.20;25.20;99054.00;;;;348013;27;91956;-89
2022/06/20 01:04:16;;;;;;;;;;;25.20;57.30;25.20;99053.00;;;;344744;28;83304;-89
2022/06/20 01:04:48;;;;;;;;;;;25.20;57.70;25.10;99055.00;;;;345675;28;88051;-89
2022/06/20 01:05:06;;;;;;;;;;;25.20;57.60;25.10;99060.00;;;;345919;28;82448;-89
2022/06/20 01:05:30;;;;;;;;;;;25.20;57.60;25.20;99052.00;;;;345394;28;90730;-89
2022/06/20 01:05:51;;;;;;;;;;;25.20;57.50;25.00;99054.00;;;;344742;28;82559;-89
2022/06/20 01:06:06;;;;;;;;;;;25.20;57.60;25.00;99043.00;;;;345664;28;89798;-89
2022/06/20 01:06:24;;;;;;;;;;;25.10;57.50;25.00;99042.00;;;;344577;28;82502;-89
2022/06/20 01:06:39;;;;;;;;;;;25.10;57.50;24.90;99040.00;;;;346825;28;91486;-89
2022/06/20 01:06:53;;;;;;;;;;;25.10;57.60;24.90;99043.00;;;;345719;28;83464;-89
2022/06/20 01:07:07;;;;;;;;;;;25.10;57.60;24.90;99041.00;;;;344181;28;90971;-88
2022/06/20 01:07:22;;;;;;;;;;;25.10;57.80;25.00;99054.00;;;;348477;27;83503;-89
2022/06/20 01:07:47;;;;;;;;;;;25.10;57.90;25.00;99048.00;;;;349578;27;90267;-88
2022/06/20 01:08:04;;;;;;;;;;;25.00;57.70;25.10;99059.00;;;;347566;28;82402;-89
2022/06/20 01:08:22;;;;;;;;;;;25.10;58.00;25.10;99060.00;;;;345526;28;91311;-89
2022/06/20 01:08:40;;;;;;;;;;;25.10;58.00;25.00;99061.00;;;;345972;28;83358;-89
2022/06/20 01:09:02;;;;;;;;;;;25.10;58.10;24.90;99055.00;;;;344233;28;92575;-89
2022/06/20 01:09:14;;;;;;;;;;;25.00;57.90;24.90;99054.00;;;;346135;28;83274;-89
2022/06/20 01:09:31;;;;;;;;;;;25.00;57.70;24.90;99058.00;;;;345438;28;89540;-89
2022/06/20 01:09:44;;;;;;;;;;;25.00;57.80;25.00;99052.00;;;;344767;28;83405;-88
2022/06/20 01:09:56;;;;;;;;;;;25.00;57.70;24.90;99055.00;;;;345257;28;90595;-89
2022/06/20 01:10:09;;;;;;;;;;;25.00;57.90;24.90;99067.00;;;;347504;28;82487;-89
2022/06/20 01:10:21;;;;;;;;;;;25.00;58.00;24.90;99057.00;;;;345440;28;90939;-89
2022/06/20 01:10:45;;;;;;;;;;;25.00;58.00;24.90;99060.00;;;;347327;28;83380;-89
2022/06/20 01:11:07;;;;;;;;;;;25.00;57.90;24.90;99061.00;;;;345368;28;91214;-89
2022/06/20 01:11:22;;;;;;;;;;;25.00;57.90;24.80;99057.00;;;;347436;28;83301;-89
2022/06/20 01:11:44;;;;;;;;;;;25.00;58.00;25.00;99052.00;;;;346628;28;91251;-89